sensor_id;sensor_type;location;lat;lon;timestamp;P1;durP1;ratioP1;P2;durP2;ratioP2
57567;SDS011;43403;51.948;5.922;2023-03-18T00:00:00;9.90;;;3.60;;
57567;SDS011;43403;51.948;5.922;2023-03-18T00:02:27;9.10;;;4.60;;
57567;SDS011;43403;51.948;5.922;2023-03-18T00:04:54;7.18;;;4.00;;
57567;SDS011;43403;51.948;5.922;2023-03-18T00:07:20;6.57;;;3.65;;
57567;SDS011;43403;51.948;5.922;2023-03-18T00:09:47;10.55;;;4.20;;
57567;SDS011;43403;51.948;5.922;2023-03-18T00:12:14;8.75;;;3.88;;
57567;SDS011;43403;51.948;5.922;2023-03-18T00:14:40;11.23;;;4.45;;
57567;SDS011;43403;51.948;5.922;2023-03-18T00:17:07;8.13;;;4.63;;
57567;SDS011;43403;51.948;5.922;2023-03-18T00:19:34;8.77;;;4.68;;
57567;SDS011;43403;51.948;5.922;2023-03-18T00:22:01;9.23;;;4.40;;
57567;SDS011;43403;51.948;5.922;2023-03-18T00:24:27;11.98;;;4.78;;
57567;SDS011;43403;51.948;5.922;2023-03-18T00:26:54;9.10;;;4.68;;
57567;SDS011;43403;51.948;5.922;2023-03-18T00:29:22;9.77;;;4.72;;
57567;SDS011;43403;51.948;5.922;2023-03-18T00:31:49;11.00;;;5.03;;
57567;SDS011;43403;51.948;5.922;2023-03-18T00:34:16;9.95;;;5.22;;
57567;SDS011;43403;51.948;5.922;2023-03-18T00:36:43;11.15;;;5.10;;
57567;SDS011;43403;51.948;5.922;2023-03-18T00:39:11;10.30;;;5.20;;
57567;SDS011;43403;51.948;5.922;2023-03-18T00:41:38;8.05;;;4.80;;
57567;SDS011;43403;51.948;5.922;2023-03-18T00:44:05;10.40;;;5.15;;
57567;SDS011;43403;51.948;5.922;2023-03-18T00:46:35;10.95;;;5.53;;
57567;SDS011;43403;51.948;5.922;2023-03-18T00:49:04;12.35;;;5.47;;
57567;SDS011;43403;51.948;5.922;2023-03-18T00:51:33;10.13;;;5.97;;
57567;SDS011;43403;51.948;5.922;2023-03-18T00:56:29;9.53;;;5.47;;
57567;SDS011;43403;51.948;5.922;2023-03-18T00:58:57;10.00;;;5.47;;
57567;SDS011;43403;51.948;5.922;2023-03-18T01:01:24;10.60;;;5.90;;
57567;SDS011;43403;51.948;5.922;2023-03-18T01:03:52;11.88;;;5.40;;
57567;SDS011;43403;51.948;5.922;2023-03-18T01:06:27;10.93;;;5.30;;
57567;SDS011;43403;51.948;5.922;2023-03-18T01:08:56;13.55;;;6.28;;
57567;SDS011;43403;51.948;5.922;2023-03-18T01:11:25;12.20;;;6.22;;
57567;SDS011;43403;51.948;5.922;2023-03-18T01:13:56;11.20;;;5.90;;
57567;SDS011;43403;51.948;5.922;2023-03-18T01:16:24;8.60;;;5.35;;
57567;SDS011;43403;51.948;5.922;2023-03-18T01:18:52;11.00;;;5.45;;
57567;SDS011;43403;51.948;5.922;2023-03-18T01:21:19;14.77;;;6.10;;
57567;SDS011;43403;51.948;5.922;2023-03-18T01:23:46;12.48;;;5.95;;
57567;SDS011;43403;51.948;5.922;2023-03-18T01:26:12;10.48;;;6.00;;
57567;SDS011;43403;51.948;5.922;2023-03-18T01:28:39;10.23;;;6.53;;
57567;SDS011;43403;51.948;5.922;2023-03-18T01:31:06;12.90;;;6.45;;
57567;SDS011;43403;51.948;5.922;2023-03-18T01:33:33;9.90;;;5.93;;
57567;SDS011;43403;51.948;5.922;2023-03-18T01:36:01;11.40;;;5.88;;
57567;SDS011;43403;51.948;5.922;2023-03-18T01:38:29;11.88;;;6.45;;
57567;SDS011;43403;51.948;5.922;2023-03-18T01:40:56;10.63;;;4.90;;
57567;SDS011;43403;51.948;5.922;2023-03-18T01:43:27;13.95;;;6.35;;
57567;SDS011;43403;51.948;5.922;2023-03-18T01:45:57;10.65;;;5.95;;
57567;SDS011;43403;51.948;5.922;2023-03-18T01:48:29;14.73;;;6.78;;
57567;SDS011;43403;51.948;5.922;2023-03-18T01:51:02;13.63;;;6.18;;
57567;SDS011;43403;51.948;5.922;2023-03-18T01:53:35;12.27;;;6.05;;
57567;SDS011;43403;51.948;5.922;2023-03-18T01:56:08;11.15;;;6.43;;
57567;SDS011;43403;51.948;5.922;2023-03-18T01:58:36;11.93;;;5.40;;
57567;SDS011;43403;51.948;5.922;2023-03-18T02:01:15;12.52;;;6.35;;
57567;SDS011;43403;51.948;5.922;2023-03-18T02:03:51;8.90;;;6.20;;
57567;SDS011;43403;51.948;5.922;2023-03-18T02:06:19;10.90;;;6.45;;
57567;SDS011;43403;51.948;5.922;2023-03-18T02:08:45;11.90;;;6.15;;
57567;SDS011;43403;51.948;5.922;2023-03-18T02:11:13;12.20;;;6.30;;
57567;SDS011;43403;51.948;5.922;2023-03-18T02:13:40;9.98;;;6.38;;
57567;SDS011;43403;51.948;5.922;2023-03-18T02:16:10;9.88;;;6.80;;
57567;SDS011;43403;51.948;5.922;2023-03-18T02:18:42;12.02;;;6.95;;
57567;SDS011;43403;51.948;5.922;2023-03-18T02:23:59;12.80;;;6.57;;
57567;SDS011;43403;51.948;5.922;2023-03-18T02:26:41;12.02;;;6.82;;
57567;SDS011;43403;51.948;5.922;2023-03-18T02:29:17;16.75;;;6.50;;
57567;SDS011;43403;51.948;5.922;2023-03-18T02:31:46;12.23;;;6.32;;
57567;SDS011;43403;51.948;5.922;2023-03-18T02:34:14;12.68;;;7.28;;
57567;SDS011;43403;51.948;5.922;2023-03-18T02:36:41;15.40;;;7.50;;
57567;SDS011;43403;51.948;5.922;2023-03-18T02:39:11;14.23;;;6.57;;
57567;SDS011;43403;51.948;5.922;2023-03-18T02:41:39;11.48;;;6.65;;
57567;SDS011;43403;51.948;5.922;2023-03-18T02:44:06;11.27;;;6.35;;
57567;SDS011;43403;51.948;5.922;2023-03-18T02:49:21;11.93;;;7.40;;
57567;SDS011;43403;51.948;5.922;2023-03-18T02:51:49;11.77;;;6.63;;
57567;SDS011;43403;51.948;5.922;2023-03-18T02:54:19;11.43;;;7.00;;
57567;SDS011;43403;51.948;5.922;2023-03-18T02:56:48;12.45;;;7.15;;
57567;SDS011;43403;51.948;5.922;2023-03-18T02:59:15;12.75;;;7.20;;
57567;SDS011;43403;51.948;5.922;2023-03-18T03:01:43;14.85;;;6.88;;
57567;SDS011;43403;51.948;5.922;2023-03-18T03:04:12;15.55;;;8.20;;
57567;SDS011;43403;51.948;5.922;2023-03-18T03:06:39;15.23;;;8.32;;
57567;SDS011;43403;51.948;5.922;2023-03-18T03:09:08;15.27;;;8.13;;
57567;SDS011;43403;51.948;5.922;2023-03-18T03:11:39;16.40;;;9.38;;
57567;SDS011;43403;51.948;5.922;2023-03-18T03:14:06;19.17;;;8.52;;
57567;SDS011;43403;51.948;5.922;2023-03-18T03:16:35;19.27;;;8.93;;
57567;SDS011;43403;51.948;5.922;2023-03-18T03:19:03;15.85;;;8.73;;
57567;SDS011;43403;51.948;5.922;2023-03-18T03:21:31;15.50;;;9.15;;
57567;SDS011;43403;51.948;5.922;2023-03-18T03:23:58;18.13;;;9.02;;
57567;SDS011;43403;51.948;5.922;2023-03-18T03:26:25;14.68;;;8.43;;
57567;SDS011;43403;51.948;5.922;2023-03-18T03:28:52;16.00;;;9.38;;
57567;SDS011;43403;51.948;5.922;2023-03-18T03:31:18;19.10;;;10.13;;
57567;SDS011;43403;51.948;5.922;2023-03-18T03:33:45;19.00;;;9.45;;
57567;SDS011;43403;51.948;5.922;2023-03-18T03:36:12;16.73;;;9.75;;
57567;SDS011;43403;51.948;5.922;2023-03-18T03:38:40;21.27;;;11.48;;
57567;SDS011;43403;51.948;5.922;2023-03-18T03:41:07;17.73;;;9.98;;
57567;SDS011;43403;51.948;5.922;2023-03-18T03:43:36;26.55;;;11.52;;
57567;SDS011;43403;51.948;5.922;2023-03-18T03:46:03;20.23;;;10.32;;
57567;SDS011;43403;51.948;5.922;2023-03-18T03:48:30;19.42;;;10.48;;
57567;SDS011;43403;51.948;5.922;2023-03-18T03:50:56;21.85;;;11.13;;
57567;SDS011;43403;51.948;5.922;2023-03-18T03:53:23;20.63;;;10.48;;
57567;SDS011;43403;51.948;5.922;2023-03-18T03:55:50;17.48;;;9.63;;
57567;SDS011;43403;51.948;5.922;2023-03-18T03:58:17;17.73;;;10.65;;
57567;SDS011;43403;51.948;5.922;2023-03-18T04:00:44;21.73;;;12.35;;
57567;SDS011;43403;51.948;5.922;2023-03-18T04:03:11;23.88;;;11.75;;
57567;SDS011;43403;51.948;5.922;2023-03-18T04:05:38;19.38;;;10.95;;
57567;SDS011;43403;51.948;5.922;2023-03-18T04:08:06;19.75;;;11.25;;
57567;SDS011;43403;51.948;5.922;2023-03-18T04:10:33;23.35;;;12.23;;
57567;SDS011;43403;51.948;5.922;2023-03-18T04:13:02;22.48;;;11.95;;
57567;SDS011;43403;51.948;5.922;2023-03-18T04:15:29;17.55;;;11.57;;
57567;SDS011;43403;51.948;5.922;2023-03-18T04:17:56;21.90;;;12.73;;
57567;SDS011;43403;51.948;5.922;2023-03-18T04:20:23;24.08;;;13.75;;
57567;SDS011;43403;51.948;5.922;2023-03-18T04:22:49;24.48;;;13.05;;
57567;SDS011;43403;51.948;5.922;2023-03-18T04:25:16;22.98;;;12.98;;
57567;SDS011;43403;51.948;5.922;2023-03-18T04:27:42;22.90;;;12.48;;
57567;SDS011;43403;51.948;5.922;2023-03-18T04:30:10;22.40;;;12.80;;
57567;SDS011;43403;51.948;5.922;2023-03-18T04:35:04;20.13;;;12.05;;
57567;SDS011;43403;51.948;5.922;2023-03-18T04:37:32;18.77;;;12.13;;
57567;SDS011;43403;51.948;5.922;2023-03-18T04:40:02;23.15;;;13.10;;
57567;SDS011;43403;51.948;5.922;2023-03-18T04:42:30;21.88;;;12.80;;
57567;SDS011;43403;51.948;5.922;2023-03-18T04:44:57;22.92;;;13.60;;
57567;SDS011;43403;51.948;5.922;2023-03-18T04:47:23;21.83;;;14.02;;
57567;SDS011;43403;51.948;5.922;2023-03-18T04:49:51;23.58;;;14.77;;
57567;SDS011;43403;51.948;5.922;2023-03-18T04:52:17;21.58;;;13.23;;
57567;SDS011;43403;51.948;5.922;2023-03-18T04:54:44;21.60;;;13.45;;
57567;SDS011;43403;51.948;5.922;2023-03-18T04:57:10;24.38;;;13.50;;
57567;SDS011;43403;51.948;5.922;2023-03-18T04:59:37;20.30;;;12.68;;
57567;SDS011;43403;51.948;5.922;2023-03-18T05:02:04;18.75;;;13.73;;
57567;SDS011;43403;51.948;5.922;2023-03-18T05:04:30;23.52;;;13.93;;
57567;SDS011;43403;51.948;5.922;2023-03-18T05:06:57;25.38;;;13.27;;
57567;SDS011;43403;51.948;5.922;2023-03-18T05:09:24;20.42;;;12.55;;
57567;SDS011;43403;51.948;5.922;2023-03-18T05:11:50;26.77;;;13.32;;
57567;SDS011;43403;51.948;5.922;2023-03-18T05:14:16;24.73;;;13.45;;
57567;SDS011;43403;51.948;5.922;2023-03-18T05:16:43;21.83;;;13.70;;
57567;SDS011;43403;51.948;5.922;2023-03-18T05:19:10;23.08;;;14.07;;
57567;SDS011;43403;51.948;5.922;2023-03-18T05:21:37;21.23;;;13.18;;
57567;SDS011;43403;51.948;5.922;2023-03-18T05:24:03;20.92;;;13.82;;
57567;SDS011;43403;51.948;5.922;2023-03-18T05:26:30;23.30;;;13.85;;
57567;SDS011;43403;51.948;5.922;2023-03-18T05:28:56;20.48;;;13.90;;
57567;SDS011;43403;51.948;5.922;2023-03-18T05:31:23;22.77;;;13.73;;
57567;SDS011;43403;51.948;5.922;2023-03-18T05:33:50;26.10;;;14.20;;
57567;SDS011;43403;51.948;5.922;2023-03-18T05:36:17;23.13;;;13.82;;
57567;SDS011;43403;51.948;5.922;2023-03-18T05:38:44;23.77;;;14.00;;
57567;SDS011;43403;51.948;5.922;2023-03-18T05:41:11;24.38;;;13.40;;
57567;SDS011;43403;51.948;5.922;2023-03-18T05:43:37;24.05;;;13.85;;
57567;SDS011;43403;51.948;5.922;2023-03-18T05:46:04;25.65;;;15.23;;
57567;SDS011;43403;51.948;5.922;2023-03-18T05:48:31;23.50;;;14.65;;
57567;SDS011;43403;51.948;5.922;2023-03-18T05:50:58;27.83;;;14.60;;
57567;SDS011;43403;51.948;5.922;2023-03-18T05:53:24;26.15;;;15.18;;
57567;SDS011;43403;51.948;5.922;2023-03-18T05:55:51;23.08;;;14.95;;
57567;SDS011;43403;51.948;5.922;2023-03-18T05:58:17;23.55;;;14.85;;
57567;SDS011;43403;51.948;5.922;2023-03-18T06:00:44;19.80;;;15.25;;
57567;SDS011;43403;51.948;5.922;2023-03-18T06:03:11;29.10;;;15.45;;
57567;SDS011;43403;51.948;5.922;2023-03-18T06:05:37;25.65;;;15.50;;
57567;SDS011;43403;51.948;5.922;2023-03-18T06:08:04;28.27;;;16.45;;
57567;SDS011;43403;51.948;5.922;2023-03-18T06:10:32;27.00;;;15.13;;
57567;SDS011;43403;51.948;5.922;2023-03-18T06:12:58;23.48;;;16.00;;
57567;SDS011;43403;51.948;5.922;2023-03-18T06:15:25;23.00;;;15.43;;
57567;SDS011;43403;51.948;5.922;2023-03-18T06:17:52;27.27;;;16.73;;
57567;SDS011;43403;51.948;5.922;2023-03-18T06:20:18;23.08;;;15.05;;
57567;SDS011;43403;51.948;5.922;2023-03-18T06:22:45;28.48;;;16.17;;
57567;SDS011;43403;51.948;5.922;2023-03-18T06:25:16;25.67;;;16.15;;
57567;SDS011;43403;51.948;5.922;2023-03-18T06:27:44;26.90;;;17.05;;
57567;SDS011;43403;51.948;5.922;2023-03-18T06:30:12;27.10;;;17.08;;
57567;SDS011;43403;51.948;5.922;2023-03-18T06:32:39;23.55;;;14.10;;
57567;SDS011;43403;51.948;5.922;2023-03-18T06:35:06;26.73;;;16.15;;
57567;SDS011;43403;51.948;5.922;2023-03-18T06:37:33;26.00;;;15.85;;
57567;SDS011;43403;51.948;5.922;2023-03-18T06:40:00;26.63;;;15.10;;
57567;SDS011;43403;51.948;5.922;2023-03-18T06:42:27;26.98;;;17.02;;
57567;SDS011;43403;51.948;5.922;2023-03-18T06:44:53;25.90;;;15.73;;
57567;SDS011;43403;51.948;5.922;2023-03-18T06:47:20;22.58;;;15.07;;
57567;SDS011;43403;51.948;5.922;2023-03-18T06:49:49;22.35;;;15.27;;
57567;SDS011;43403;51.948;5.922;2023-03-18T06:52:17;21.83;;;15.43;;
57567;SDS011;43403;51.948;5.922;2023-03-18T06:54:44;26.30;;;15.77;;
57567;SDS011;43403;51.948;5.922;2023-03-18T06:57:11;25.25;;;15.80;;
57567;SDS011;43403;51.948;5.922;2023-03-18T06:59:38;28.30;;;16.33;;
57567;SDS011;43403;51.948;5.922;2023-03-18T07:02:05;25.83;;;14.75;;
57567;SDS011;43403;51.948;5.922;2023-03-18T07:04:33;20.42;;;14.48;;
57567;SDS011;43403;51.948;5.922;2023-03-18T07:07:01;23.92;;;15.25;;
57567;SDS011;43403;51.948;5.922;2023-03-18T07:09:27;22.45;;;13.88;;
57567;SDS011;43403;51.948;5.922;2023-03-18T07:11:54;22.90;;;14.68;;
57567;SDS011;43403;51.948;5.922;2023-03-18T07:14:21;26.10;;;15.55;;
57567;SDS011;43403;51.948;5.922;2023-03-18T07:16:48;23.30;;;15.25;;
57567;SDS011;43403;51.948;5.922;2023-03-18T07:19:16;24.10;;;15.48;;
57567;SDS011;43403;51.948;5.922;2023-03-18T07:21:46;22.77;;;14.73;;
57567;SDS011;43403;51.948;5.922;2023-03-18T07:24:15;22.58;;;15.38;;
57567;SDS011;43403;51.948;5.922;2023-03-18T07:26:42;25.83;;;15.77;;
57567;SDS011;43403;51.948;5.922;2023-03-18T07:29:09;23.30;;;14.18;;
57567;SDS011;43403;51.948;5.922;2023-03-18T07:31:36;22.85;;;15.23;;
57567;SDS011;43403;51.948;5.922;2023-03-18T07:34:02;21.83;;;14.57;;
57567;SDS011;43403;51.948;5.922;2023-03-18T07:36:30;22.17;;;15.27;;
57567;SDS011;43403;51.948;5.922;2023-03-18T07:38:56;24.23;;;15.23;;
57567;SDS011;43403;51.948;5.922;2023-03-18T07:41:24;21.63;;;14.07;;
57567;SDS011;43403;51.948;5.922;2023-03-18T07:43:51;25.05;;;15.52;;
57567;SDS011;43403;51.948;5.922;2023-03-18T07:46:18;22.15;;;14.23;;
57567;SDS011;43403;51.948;5.922;2023-03-18T07:48:45;23.92;;;15.40;;
57567;SDS011;43403;51.948;5.922;2023-03-18T07:51:13;22.17;;;15.10;;
57567;SDS011;43403;51.948;5.922;2023-03-18T07:53:41;23.85;;;14.75;;
57567;SDS011;43403;51.948;5.922;2023-03-18T07:56:08;22.35;;;14.85;;
57567;SDS011;43403;51.948;5.922;2023-03-18T07:58:37;23.48;;;15.10;;
57567;SDS011;43403;51.948;5.922;2023-03-18T08:01:04;20.15;;;13.48;;
57567;SDS011;43403;51.948;5.922;2023-03-18T08:03:31;23.60;;;13.00;;
57567;SDS011;43403;51.948;5.922;2023-03-18T08:05:59;18.90;;;12.67;;
57567;SDS011;43403;51.948;5.922;2023-03-18T08:08:26;18.90;;;12.02;;
57567;SDS011;43403;51.948;5.922;2023-03-18T08:10:56;17.13;;;11.85;;
57567;SDS011;43403;51.948;5.922;2023-03-18T08:13:25;17.27;;;10.70;;
57567;SDS011;43403;51.948;5.922;2023-03-18T08:15:52;17.98;;;11.55;;
57567;SDS011;43403;51.948;5.922;2023-03-18T08:18:19;18.95;;;11.98;;
57567;SDS011;43403;51.948;5.922;2023-03-18T08:20:45;19.10;;;12.52;;
57567;SDS011;43403;51.948;5.922;2023-03-18T08:23:13;17.27;;;11.95;;
57567;SDS011;43403;51.948;5.922;2023-03-18T08:25:40;17.08;;;11.60;;
57567;SDS011;43403;51.948;5.922;2023-03-18T08:28:08;16.80;;;11.95;;
57567;SDS011;43403;51.948;5.922;2023-03-18T08:30:34;16.40;;;11.80;;
57567;SDS011;43403;51.948;5.922;2023-03-18T08:33:04;15.75;;;11.52;;
57567;SDS011;43403;51.948;5.922;2023-03-18T08:35:30;17.17;;;11.15;;
57567;SDS011;43403;51.948;5.922;2023-03-18T08:37:57;16.50;;;11.23;;
57567;SDS011;43403;51.948;5.922;2023-03-18T08:40:24;19.75;;;12.15;;
57567;SDS011;43403;51.948;5.922;2023-03-18T08:42:51;16.08;;;11.75;;
57567;SDS011;43403;51.948;5.922;2023-03-18T08:45:18;19.77;;;11.55;;
57567;SDS011;43403;51.948;5.922;2023-03-18T08:47:45;15.77;;;11.05;;
57567;SDS011;43403;51.948;5.922;2023-03-18T08:50:11;18.98;;;11.70;;
57567;SDS011;43403;51.948;5.922;2023-03-18T08:52:39;18.77;;;12.40;;
57567;SDS011;43403;51.948;5.922;2023-03-18T08:55:06;19.25;;;12.32;;
57567;SDS011;43403;51.948;5.922;2023-03-18T08:57:34;15.43;;;11.80;;
57567;SDS011;43403;51.948;5.922;2023-03-18T09:00:02;14.37;;;11.60;;
57567;SDS011;43403;51.948;5.922;2023-03-18T09:02:30;19.60;;;10.98;;
57567;SDS011;43403;51.948;5.922;2023-03-18T09:04:57;15.38;;;11.85;;
57567;SDS011;43403;51.948;5.922;2023-03-18T09:07:23;17.63;;;11.43;;
57567;SDS011;43403;51.948;5.922;2023-03-18T09:09:50;17.85;;;11.32;;
57567;SDS011;43403;51.948;5.922;2023-03-18T09:12:17;17.70;;;10.63;;
57567;SDS011;43403;51.948;5.922;2023-03-18T09:14:44;15.30;;;10.43;;
57567;SDS011;43403;51.948;5.922;2023-03-18T09:17:12;15.77;;;10.95;;
57567;SDS011;43403;51.948;5.922;2023-03-18T09:19:39;17.17;;;11.10;;
57567;SDS011;43403;51.948;5.922;2023-03-18T09:22:06;14.02;;;10.38;;
57567;SDS011;43403;51.948;5.922;2023-03-18T09:24:34;16.13;;;9.70;;
57567;SDS011;43403;51.948;5.922;2023-03-18T09:27:00;13.82;;;9.60;;
57567;SDS011;43403;51.948;5.922;2023-03-18T09:29:26;15.10;;;9.63;;
57567;SDS011;43403;51.948;5.922;2023-03-18T09:31:53;12.73;;;9.77;;
57567;SDS011;43403;51.948;5.922;2023-03-18T09:34:20;12.75;;;9.40;;
57567;SDS011;43403;51.948;5.922;2023-03-18T09:36:47;12.50;;;8.82;;
57567;SDS011;43403;51.948;5.922;2023-03-18T09:39:17;12.23;;;9.63;;
57567;SDS011;43403;51.948;5.922;2023-03-18T09:44:35;12.32;;;9.30;;
57567;SDS011;43403;51.948;5.922;2023-03-18T09:49:48;13.70;;;8.02;;
57567;SDS011;43403;51.948;5.922;2023-03-18T09:52:38;12.38;;;8.40;;
57567;SDS011;43403;51.948;5.922;2023-03-18T09:57:44;10.55;;;8.25;;
57567;SDS011;43403;51.948;5.922;2023-03-18T10:00:21;11.07;;;8.00;;
57567;SDS011;43403;51.948;5.922;2023-03-18T10:05:53;11.25;;;7.63;;
57567;SDS011;43403;51.948;5.922;2023-03-18T10:08:37;11.60;;;8.23;;
57567;SDS011;43403;51.948;5.922;2023-03-18T10:11:25;12.23;;;8.05;;
57567;SDS011;43403;51.948;5.922;2023-03-18T10:14:06;12.45;;;7.20;;
57567;SDS011;43403;51.948;5.922;2023-03-18T10:16:37;10.90;;;7.72;;
57567;SDS011;43403;51.948;5.922;2023-03-18T10:19:13;10.25;;;7.13;;
57567;SDS011;43403;51.948;5.922;2023-03-18T10:21:47;12.63;;;7.25;;
57567;SDS011;43403;51.948;5.922;2023-03-18T10:30:15;10.73;;;7.13;;
57567;SDS011;43403;51.948;5.922;2023-03-18T10:32:58;9.68;;;7.07;;
57567;SDS011;43403;51.948;5.922;2023-03-18T10:35:36;10.75;;;7.78;;
57567;SDS011;43403;51.948;5.922;2023-03-18T10:38:17;9.60;;;6.93;;
57567;SDS011;43403;51.948;5.922;2023-03-18T10:40:52;9.65;;;6.90;;
57567;SDS011;43403;51.948;5.922;2023-03-18T10:43:22;12.03;;;7.40;;
57567;SDS011;43403;51.948;5.922;2023-03-18T10:46:00;11.20;;;7.07;;
57567;SDS011;43403;51.948;5.922;2023-03-18T10:48:33;7.88;;;6.90;;
57567;SDS011;43403;51.948;5.922;2023-03-18T10:53:54;9.70;;;6.80;;
57567;SDS011;43403;51.948;5.922;2023-03-18T10:56:34;9.73;;;6.07;;
57567;SDS011;43403;51.948;5.922;2023-03-18T10:59:07;10.25;;;6.55;;
57567;SDS011;43403;51.948;5.922;2023-03-18T11:01:37;8.50;;;5.75;;
57567;SDS011;43403;51.948;5.922;2023-03-18T11:04:04;9.47;;;6.57;;
57567;SDS011;43403;51.948;5.922;2023-03-18T11:06:50;8.30;;;5.55;;
57567;SDS011;43403;51.948;5.922;2023-03-18T11:09:29;8.93;;;5.78;;
57567;SDS011;43403;51.948;5.922;2023-03-18T11:12:05;8.65;;;5.20;;
57567;SDS011;43403;51.948;5.922;2023-03-18T11:14:39;8.50;;;4.78;;
57567;SDS011;43403;51.948;5.922;2023-03-18T11:17:26;6.65;;;4.30;;
57567;SDS011;43403;51.948;5.922;2023-03-18T11:20:03;5.35;;;3.47;;
57567;SDS011;43403;51.948;5.922;2023-03-18T11:22:33;7.00;;;3.60;;
57567;SDS011;43403;51.948;5.922;2023-03-18T11:27:37;6.10;;;3.72;;
57567;SDS011;43403;51.948;5.922;2023-03-18T11:30:24;6.80;;;3.75;;
57567;SDS011;43403;51.948;5.922;2023-03-18T11:33:04;5.05;;;3.50;;
57567;SDS011;43403;51.948;5.922;2023-03-18T11:38:26;5.35;;;3.10;;
57567;SDS011;43403;51.948;5.922;2023-03-18T11:41:07;5.20;;;3.22;;
57567;SDS011;43403;51.948;5.922;2023-03-18T11:43:38;6.18;;;4.07;;
57567;SDS011;43403;51.948;5.922;2023-03-18T11:46:19;6.10;;;3.13;;
57567;SDS011;43403;51.948;5.922;2023-03-18T11:48:49;4.90;;;2.65;;
57567;SDS011;43403;51.948;5.922;2023-03-18T11:57:01;4.85;;;2.40;;
57567;SDS011;43403;51.948;5.922;2023-03-18T11:59:51;5.70;;;3.05;;
57567;SDS011;43403;51.948;5.922;2023-03-18T12:02:41;5.40;;;3.30;;
57567;SDS011;43403;51.948;5.922;2023-03-18T12:08:32;5.55;;;3.95;;
57567;SDS011;43403;51.948;5.922;2023-03-18T12:11:20;6.05;;;4.20;;
57567;SDS011;43403;51.948;5.922;2023-03-18T12:14:04;6.72;;;3.97;;
57567;SDS011;43403;51.948;5.922;2023-03-18T12:16:54;6.57;;;3.55;;
57567;SDS011;43403;51.948;5.922;2023-03-18T12:25:22;5.47;;;4.53;;
57567;SDS011;43403;51.948;5.922;2023-03-18T12:27:58;5.55;;;4.00;;
57567;SDS011;43403;51.948;5.922;2023-03-18T12:39:31;4.18;;;2.70;;
57567;SDS011;43403;51.948;5.922;2023-03-18T12:42:29;6.45;;;3.22;;
57567;SDS011;43403;51.948;5.922;2023-03-18T12:45:17;6.25;;;3.42;;
57567;SDS011;43403;51.948;5.922;2023-03-18T12:47:49;5.90;;;3.40;;
57567;SDS011;43403;51.948;5.922;2023-03-18T12:50:24;5.65;;;3.55;;
57567;SDS011;43403;51.948;5.922;2023-03-18T12:52:55;5.78;;;3.20;;
57567;SDS011;43403;51.948;5.922;2023-03-18T12:55:45;5.43;;;3.17;;
57567;SDS011;43403;51.948;5.922;2023-03-18T12:58:34;5.40;;;3.30;;
57567;SDS011;43403;51.948;5.922;2023-03-18T13:01:32;6.32;;;3.45;;
57567;SDS011;43403;51.948;5.922;2023-03-18T13:04:06;7.75;;;3.17;;
57567;SDS011;43403;51.948;5.922;2023-03-18T13:06:43;4.45;;;2.90;;
57567;SDS011;43403;51.948;5.922;2023-03-18T13:17:09;4.35;;;3.05;;
57567;SDS011;43403;51.948;5.922;2023-03-18T13:19:40;9.40;;;4.13;;
57567;SDS011;43403;51.948;5.922;2023-03-18T13:22:16;10.95;;;4.50;;
57567;SDS011;43403;51.948;5.922;2023-03-18T13:25:13;6.38;;;3.03;;
57567;SDS011;43403;51.948;5.922;2023-03-18T13:28:15;3.75;;;2.60;;
57567;SDS011;43403;51.948;5.922;2023-03-18T13:31:52;5.88;;;2.50;;
57567;SDS011;43403;51.948;5.922;2023-03-18T13:36:35;7.43;;;2.63;;
57567;SDS011;43403;51.948;5.922;2023-03-18T13:42:12;3.90;;;2.20;;
57567;SDS011;43403;51.948;5.922;2023-03-18T13:45:02;6.30;;;2.10;;
57567;SDS011;43403;51.948;5.922;2023-03-18T13:47:38;8.00;;;2.03;;
57567;SDS011;43403;51.948;5.922;2023-03-18T13:50:22;5.43;;;2.25;;
57567;SDS011;43403;51.948;5.922;2023-03-18T13:52:55;6.35;;;2.42;;
57567;SDS011;43403;51.948;5.922;2023-03-18T14:00:40;5.22;;;3.03;;
57567;SDS011;43403;51.948;5.922;2023-03-18T14:03:27;4.22;;;2.80;;
57567;SDS011;43403;51.948;5.922;2023-03-18T14:13:42;6.00;;;3.20;;
57567;SDS011;43403;51.948;5.922;2023-03-18T14:16:10;4.90;;;2.63;;
57567;SDS011;43403;51.948;5.922;2023-03-18T14:18:39;6.60;;;3.15;;
57567;SDS011;43403;51.948;5.922;2023-03-18T14:21:20;4.47;;;3.20;;
57567;SDS011;43403;51.948;5.922;2023-03-18T14:24:11;5.03;;;2.60;;
57567;SDS011;43403;51.948;5.922;2023-03-18T14:26:38;8.20;;;2.78;;
57567;SDS011;43403;51.948;5.922;2023-03-18T14:39:42;4.03;;;1.88;;
57567;SDS011;43403;51.948;5.922;2023-03-18T14:42:17;2.97;;;1.73;;
57567;SDS011;43403;51.948;5.922;2023-03-18T14:44:49;6.45;;;2.00;;
57567;SDS011;43403;51.948;5.922;2023-03-18T14:47:24;5.15;;;2.15;;
57567;SDS011;43403;51.948;5.922;2023-03-18T14:50:05;6.90;;;1.90;;
57567;SDS011;43403;51.948;5.922;2023-03-18T14:52:49;4.68;;;1.88;;
57567;SDS011;43403;51.948;5.922;2023-03-18T14:55:22;3.50;;;1.60;;
57567;SDS011;43403;51.948;5.922;2023-03-18T14:57:52;4.30;;;1.60;;
57567;SDS011;43403;51.948;5.922;2023-03-18T15:00:20;3.25;;;1.38;;
57567;SDS011;43403;51.948;5.922;2023-03-18T15:02:48;3.95;;;1.58;;
57567;SDS011;43403;51.948;5.922;2023-03-18T15:05:27;4.70;;;1.95;;
57567;SDS011;43403;51.948;5.922;2023-03-18T15:07:59;2.88;;;1.27;;
57567;SDS011;43403;51.948;5.922;2023-03-18T15:10:28;4.25;;;1.45;;
57567;SDS011;43403;51.948;5.922;2023-03-18T15:12:57;3.22;;;1.33;;
57567;SDS011;43403;51.948;5.922;2023-03-18T15:15:25;4.47;;;1.92;;
57567;SDS011;43403;51.948;5.922;2023-03-18T15:17:52;6.65;;;2.00;;
57567;SDS011;43403;51.948;5.922;2023-03-18T15:20:19;3.92;;;1.73;;
57567;SDS011;43403;51.948;5.922;2023-03-18T15:22:48;4.63;;;1.75;;
57567;SDS011;43403;51.948;5.922;2023-03-18T15:25:16;5.18;;;1.88;;
57567;SDS011;43403;51.948;5.922;2023-03-18T15:27:45;4.35;;;1.98;;
57567;SDS011;43403;51.948;5.922;2023-03-18T15:30:26;5.43;;;2.97;;
57567;SDS011;43403;51.948;5.922;2023-03-18T15:35:33;6.40;;;2.63;;
57567;SDS011;43403;51.948;5.922;2023-03-18T15:38:02;4.63;;;1.80;;
57567;SDS011;43403;51.948;5.922;2023-03-18T15:40:32;4.03;;;1.80;;
57567;SDS011;43403;51.948;5.922;2023-03-18T15:43:03;3.50;;;1.58;;
57567;SDS011;43403;51.948;5.922;2023-03-18T15:45:39;4.15;;;1.80;;
57567;SDS011;43403;51.948;5.922;2023-03-18T15:48:17;4.43;;;1.92;;
57567;SDS011;43403;51.948;5.922;2023-03-18T15:53:50;5.57;;;1.70;;
57567;SDS011;43403;51.948;5.922;2023-03-18T15:56:23;4.20;;;1.70;;
57567;SDS011;43403;51.948;5.922;2023-03-18T15:59:06;4.15;;;1.73;;
57567;SDS011;43403;51.948;5.922;2023-03-18T16:01:39;4.03;;;1.50;;
57567;SDS011;43403;51.948;5.922;2023-03-18T16:04:07;4.53;;;1.40;;
57567;SDS011;43403;51.948;5.922;2023-03-18T16:06:37;2.78;;;1.52;;
57567;SDS011;43403;51.948;5.922;2023-03-18T16:09:12;2.90;;;1.67;;
57567;SDS011;43403;51.948;5.922;2023-03-18T16:11:50;3.10;;;1.63;;
57567;SDS011;43403;51.948;5.922;2023-03-18T16:14:21;3.03;;;1.80;;
57567;SDS011;43403;51.948;5.922;2023-03-18T16:16:50;3.42;;;1.50;;
57567;SDS011;43403;51.948;5.922;2023-03-18T16:19:23;6.07;;;1.80;;
57567;SDS011;43403;51.948;5.922;2023-03-18T16:21:56;4.82;;;2.00;;
57567;SDS011;43403;51.948;5.922;2023-03-18T16:24:24;5.22;;;1.65;;
57567;SDS011;43403;51.948;5.922;2023-03-18T16:26:51;3.90;;;1.60;;
57567;SDS011;43403;51.948;5.922;2023-03-18T16:29:40;2.90;;;1.48;;
57567;SDS011;43403;51.948;5.922;2023-03-18T16:32:08;5.50;;;1.40;;
57567;SDS011;43403;51.948;5.922;2023-03-18T16:34:37;2.80;;;1.50;;